sensor_id;sensor_type;location;lat;lon;timestamp;P1;durP1;ratioP1;P2;durP2;ratioP2
58242;SDS011;50118;53.232;8.252;2023-01-08T00:01:55;5.70;;;3.40;;
58242;SDS011;50118;53.232;8.252;2023-01-08T00:04:20;5.20;;;3.47;;
58242;SDS011;50118;53.232;8.252;2023-01-08T00:06:46;5.00;;;3.33;;
58242;SDS011;50118;53.232;8.252;2023-01-08T00:09:11;5.78;;;3.38;;
58242;SDS011;50118;53.232;8.252;2023-01-08T00:11:37;5.55;;;3.33;;
58242;SDS011;50118;53.232;8.252;2023-01-08T00:14:03;4.70;;;3.15;;
58242;SDS011;50118;53.232;8.252;2023-01-08T00:16:29;5.72;;;3.35;;
58242;SDS011;50118;53.232;8.252;2023-01-08T00:18:54;5.00;;;3.20;;
58242;SDS011;50118;53.232;8.252;2023-01-08T00:21:20;4.65;;;3.35;;
58242;SDS011;50118;53.232;8.252;2023-01-08T00:23:45;6.50;;;3.47;;
58242;SDS011;50118;53.232;8.252;2023-01-08T00:26:11;4.82;;;3.35;;
58242;SDS011;50118;53.232;8.252;2023-01-08T00:28:38;5.30;;;3.72;;
58242;SDS011;50118;53.232;8.252;2023-01-08T00:31:07;5.25;;;3.50;;
58242;SDS011;50118;53.232;8.252;2023-01-08T00:33:34;5.28;;;3.40;;
58242;SDS011;50118;53.232;8.252;2023-01-08T00:36:05;5.28;;;3.60;;
58242;SDS011;50118;53.232;8.252;2023-01-08T00:38:32;5.53;;;3.47;;
58242;SDS011;50118;53.232;8.252;2023-01-08T00:40:58;5.15;;;3.30;;
58242;SDS011;50118;53.232;8.252;2023-01-08T00:43:23;4.65;;;3.55;;
58242;SDS011;50118;53.232;8.252;2023-01-08T00:45:49;4.32;;;3.38;;
58242;SDS011;50118;53.232;8.252;2023-01-08T00:48:17;4.68;;;3.30;;
58242;SDS011;50118;53.232;8.252;2023-01-08T00:50:43;4.97;;;3.35;;
58242;SDS011;50118;53.232;8.252;2023-01-08T00:53:08;5.10;;;3.80;;
58242;SDS011;50118;53.232;8.252;2023-01-08T00:55:34;5.13;;;3.33;;
58242;SDS011;50118;53.232;8.252;2023-01-08T00:57:59;6.47;;;4.03;;
58242;SDS011;50118;53.232;8.252;2023-01-08T01:00:24;5.78;;;3.63;;
58242;SDS011;50118;53.232;8.252;2023-01-08T01:02:50;6.35;;;3.90;;
58242;SDS011;50118;53.232;8.252;2023-01-08T01:05:15;5.72;;;3.72;;
58242;SDS011;50118;53.232;8.252;2023-01-08T01:07:44;4.60;;;3.47;;
58242;SDS011;50118;53.232;8.252;2023-01-08T01:10:11;6.32;;;3.97;;
58242;SDS011;50118;53.232;8.252;2023-01-08T01:12:38;5.07;;;3.70;;
58242;SDS011;50118;53.232;8.252;2023-01-08T01:15:08;5.20;;;3.58;;
58242;SDS011;50118;53.232;8.252;2023-01-08T01:17:39;6.13;;;3.80;;
58242;SDS011;50118;53.232;8.252;2023-01-08T01:20:06;6.82;;;3.97;;
58242;SDS011;50118;53.232;8.252;2023-01-08T01:22:33;5.25;;;3.60;;
58242;SDS011;50118;53.232;8.252;2023-01-08T01:24:59;5.93;;;3.63;;
58242;SDS011;50118;53.232;8.252;2023-01-08T01:27:25;5.10;;;3.85;;
58242;SDS011;50118;53.232;8.252;2023-01-08T01:29:51;6.75;;;3.78;;
58242;SDS011;50118;53.232;8.252;2023-01-08T01:32:17;5.32;;;3.70;;
58242;SDS011;50118;53.232;8.252;2023-01-08T01:34:42;6.47;;;4.00;;
58242;SDS011;50118;53.232;8.252;2023-01-08T01:37:09;6.53;;;3.95;;
58242;SDS011;50118;53.232;8.252;2023-01-08T01:39:37;5.75;;;4.07;;
58242;SDS011;50118;53.232;8.252;2023-01-08T01:42:02;5.60;;;3.45;;
58242;SDS011;50118;53.232;8.252;2023-01-08T01:44:38;5.30;;;3.72;;
58242;SDS011;50118;53.232;8.252;2023-01-08T01:47:12;6.15;;;3.80;;
58242;SDS011;50118;53.232;8.252;2023-01-08T01:49:41;5.13;;;3.90;;
58242;SDS011;50118;53.232;8.252;2023-01-08T01:52:13;5.13;;;3.90;;
58242;SDS011;50118;53.232;8.252;2023-01-08T01:54:39;5.00;;;3.22;;
58242;SDS011;50118;53.232;8.252;2023-01-08T01:57:05;6.18;;;3.78;;
58242;SDS011;50118;53.232;8.252;2023-01-08T01:59:32;6.43;;;3.70;;
58242;SDS011;50118;53.232;8.252;2023-01-08T02:01:57;5.55;;;3.80;;
58242;SDS011;50118;53.232;8.252;2023-01-08T02:04:24;6.10;;;3.83;;
58242;SDS011;50118;53.232;8.252;2023-01-08T02:07:00;7.25;;;3.88;;
58242;SDS011;50118;53.232;8.252;2023-01-08T02:09:40;6.22;;;4.28;;
58242;SDS011;50118;53.232;8.252;2023-01-08T02:20:09;5.47;;;3.88;;
58242;SDS011;50118;53.232;8.252;2023-01-08T02:27:44;5.80;;;4.07;;
58242;SDS011;50118;53.232;8.252;2023-01-08T02:30:13;6.63;;;4.18;;
58242;SDS011;50118;53.232;8.252;2023-01-08T02:32:39;5.50;;;4.00;;
58242;SDS011;50118;53.232;8.252;2023-01-08T02:35:06;5.13;;;3.90;;
58242;SDS011;50118;53.232;8.252;2023-01-08T02:37:33;5.05;;;3.97;;
58242;SDS011;50118;53.232;8.252;2023-01-08T02:42:58;5.25;;;3.70;;
58242;SDS011;50118;53.232;8.252;2023-01-08T02:45:42;6.10;;;4.10;;
58242;SDS011;50118;53.232;8.252;2023-01-08T02:48:12;6.80;;;4.07;;
58242;SDS011;50118;53.232;8.252;2023-01-08T02:53:45;5.57;;;4.18;;
58242;SDS011;50118;53.232;8.252;2023-01-08T02:56:18;6.22;;;4.45;;
58242;SDS011;50118;53.232;8.252;2023-01-08T02:58:47;6.20;;;4.35;;
58242;SDS011;50118;53.232;8.252;2023-01-08T03:01:15;6.25;;;4.05;;
58242;SDS011;50118;53.232;8.252;2023-01-08T03:03:42;6.07;;;4.22;;
58242;SDS011;50118;53.232;8.252;2023-01-08T03:06:12;6.40;;;4.55;;
58242;SDS011;50118;53.232;8.252;2023-01-08T03:08:43;6.82;;;4.40;;
58242;SDS011;50118;53.232;8.252;2023-01-08T03:11:12;5.53;;;4.32;;
58242;SDS011;50118;53.232;8.252;2023-01-08T03:13:47;6.45;;;4.35;;
58242;SDS011;50118;53.232;8.252;2023-01-08T03:16:21;6.25;;;4.38;;
58242;SDS011;50118;53.232;8.252;2023-01-08T03:18:54;6.85;;;4.50;;
58242;SDS011;50118;53.232;8.252;2023-01-08T03:21:25;6.97;;;4.35;;
58242;SDS011;50118;53.232;8.252;2023-01-08T03:23:51;5.90;;;4.10;;
58242;SDS011;50118;53.232;8.252;2023-01-08T03:26:20;5.32;;;4.22;;
58242;SDS011;50118;53.232;8.252;2023-01-08T03:28:53;5.47;;;3.75;;
58242;SDS011;50118;53.232;8.252;2023-01-08T03:31:20;5.57;;;4.00;;
58242;SDS011;50118;53.232;8.252;2023-01-08T03:33:49;5.65;;;4.20;;
58242;SDS011;50118;53.232;8.252;2023-01-08T03:36:15;6.32;;;3.80;;
58242;SDS011;50118;53.232;8.252;2023-01-08T03:39:06;6.20;;;3.83;;
58242;SDS011;50118;53.232;8.252;2023-01-08T03:41:39;7.13;;;3.72;;
58242;SDS011;50118;53.232;8.252;2023-01-08T03:44:05;6.43;;;4.03;;
58242;SDS011;50118;53.232;8.252;2023-01-08T03:46:31;6.00;;;3.90;;
58242;SDS011;50118;53.232;8.252;2023-01-08T03:48:59;6.68;;;4.35;;
58242;SDS011;50118;53.232;8.252;2023-01-08T03:51:25;5.65;;;3.97;;
58242;SDS011;50118;53.232;8.252;2023-01-08T03:53:52;5.13;;;4.07;;
58242;SDS011;50118;53.232;8.252;2023-01-08T03:56:20;5.53;;;4.05;;
58242;SDS011;50118;53.232;8.252;2023-01-08T03:58:46;5.57;;;3.95;;
58242;SDS011;50118;53.232;8.252;2023-01-08T04:01:12;5.20;;;3.75;;
58242;SDS011;50118;53.232;8.252;2023-01-08T04:03:37;5.72;;;4.00;;
58242;SDS011;50118;53.232;8.252;2023-01-08T04:06:03;5.90;;;4.20;;
58242;SDS011;50118;53.232;8.252;2023-01-08T04:08:28;6.53;;;3.95;;
58242;SDS011;50118;53.232;8.252;2023-01-08T04:10:53;6.70;;;4.00;;
58242;SDS011;50118;53.232;8.252;2023-01-08T04:13:19;4.88;;;3.75;;
58242;SDS011;50118;53.232;8.252;2023-01-08T04:15:48;6.30;;;4.10;;
58242;SDS011;50118;53.232;8.252;2023-01-08T04:18:14;8.38;;;4.35;;
58242;SDS011;50118;53.232;8.252;2023-01-08T04:20:43;6.43;;;4.55;;
58242;SDS011;50118;53.232;8.252;2023-01-08T04:23:09;6.10;;;4.25;;
58242;SDS011;50118;53.232;8.252;2023-01-08T04:25:36;5.93;;;3.92;;
58242;SDS011;50118;53.232;8.252;2023-01-08T04:28:02;6.10;;;4.30;;
58242;SDS011;50118;53.232;8.252;2023-01-08T04:30:28;6.38;;;4.10;;
58242;SDS011;50118;53.232;8.252;2023-01-08T04:32:53;6.10;;;4.03;;
58242;SDS011;50118;53.232;8.252;2023-01-08T04:35:19;5.38;;;4.10;;
58242;SDS011;50118;53.232;8.252;2023-01-08T04:37:44;6.45;;;3.92;;
58242;SDS011;50118;53.232;8.252;2023-01-08T04:40:10;6.35;;;3.90;;
58242;SDS011;50118;53.232;8.252;2023-01-08T04:42:35;5.70;;;3.90;;
58242;SDS011;50118;53.232;8.252;2023-01-08T04:45:01;6.25;;;3.90;;
58242;SDS011;50118;53.232;8.252;2023-01-08T04:47:26;6.80;;;3.92;;
58242;SDS011;50118;53.232;8.252;2023-01-08T04:49:52;6.43;;;4.10;;
58242;SDS011;50118;53.232;8.252;2023-01-08T04:52:17;8.57;;;3.90;;
58242;SDS011;50118;53.232;8.252;2023-01-08T04:54:42;6.00;;;3.90;;
58242;SDS011;50118;53.232;8.252;2023-01-08T04:57:08;6.40;;;3.80;;
58242;SDS011;50118;53.232;8.252;2023-01-08T04:59:33;6.57;;;3.90;;
58242;SDS011;50118;53.232;8.252;2023-01-08T05:01:59;5.72;;;3.55;;
58242;SDS011;50118;53.232;8.252;2023-01-08T05:04:24;6.68;;;3.90;;
58242;SDS011;50118;53.232;8.252;2023-01-08T05:06:49;7.45;;;4.07;;
58242;SDS011;50118;53.232;8.252;2023-01-08T05:09:15;6.80;;;3.63;;
58242;SDS011;50118;53.232;8.252;2023-01-08T05:11:40;5.45;;;3.63;;
58242;SDS011;50118;53.232;8.252;2023-01-08T05:14:07;7.32;;;3.60;;
58242;SDS011;50118;53.232;8.252;2023-01-08T05:16:32;5.57;;;3.38;;
58242;SDS011;50118;53.232;8.252;2023-01-08T05:18:58;4.82;;;3.67;;
58242;SDS011;50118;53.232;8.252;2023-01-08T05:21:23;5.28;;;3.60;;
58242;SDS011;50118;53.232;8.252;2023-01-08T05:23:48;6.43;;;3.63;;
58242;SDS011;50118;53.232;8.252;2023-01-08T05:26:14;5.55;;;3.40;;
58242;SDS011;50118;53.232;8.252;2023-01-08T05:28:40;5.60;;;3.55;;
58242;SDS011;50118;53.232;8.252;2023-01-08T05:31:06;5.47;;;3.22;;
58242;SDS011;50118;53.232;8.252;2023-01-08T05:33:32;6.95;;;3.47;;
58242;SDS011;50118;53.232;8.252;2023-01-08T05:35:57;4.97;;;3.25;;
58242;SDS011;50118;53.232;8.252;2023-01-08T05:38:22;5.30;;;3.60;;
58242;SDS011;50118;53.232;8.252;2023-01-08T05:40:50;4.90;;;3.20;;
58242;SDS011;50118;53.232;8.252;2023-01-08T05:43:16;4.85;;;3.03;;
58242;SDS011;50118;53.232;8.252;2023-01-08T05:45:42;6.28;;;3.13;;
58242;SDS011;50118;53.232;8.252;2023-01-08T05:48:07;6.03;;;3.50;;
58242;SDS011;50118;53.232;8.252;2023-01-08T05:50:33;5.80;;;3.47;;
58242;SDS011;50118;53.232;8.252;2023-01-08T05:52:59;5.03;;;3.22;;
58242;SDS011;50118;53.232;8.252;2023-01-08T05:55:25;4.97;;;3.40;;
58242;SDS011;50118;53.232;8.252;2023-01-08T05:57:50;6.40;;;3.20;;
58242;SDS011;50118;53.232;8.252;2023-01-08T06:00:16;6.15;;;3.35;;
58242;SDS011;50118;53.232;8.252;2023-01-08T06:02:45;5.18;;;3.45;;
58242;SDS011;50118;53.232;8.252;2023-01-08T06:05:11;4.88;;;3.22;;
58242;SDS011;50118;53.232;8.252;2023-01-08T06:07:37;4.57;;;3.22;;
58242;SDS011;50118;53.232;8.252;2023-01-08T06:10:02;6.47;;;3.30;;
58242;SDS011;50118;53.232;8.252;2023-01-08T06:12:28;5.68;;;3.70;;
58242;SDS011;50118;53.232;8.252;2023-01-08T06:14:53;5.63;;;3.53;;
58242;SDS011;50118;53.232;8.252;2023-01-08T06:17:19;6.55;;;3.63;;
58242;SDS011;50118;53.232;8.252;2023-01-08T06:19:44;6.03;;;3.95;;
58242;SDS011;50118;53.232;8.252;2023-01-08T06:22:11;6.85;;;4.10;;
58242;SDS011;50118;53.232;8.252;2023-01-08T06:24:36;5.88;;;3.88;;
58242;SDS011;50118;53.232;8.252;2023-01-08T06:27:02;6.63;;;4.22;;
58242;SDS011;50118;53.232;8.252;2023-01-08T06:29:27;7.07;;;4.20;;
58242;SDS011;50118;53.232;8.252;2023-01-08T06:31:52;7.38;;;3.92;;
58242;SDS011;50118;53.232;8.252;2023-01-08T06:34:18;7.68;;;4.18;;
58242;SDS011;50118;53.232;8.252;2023-01-08T06:36:43;6.20;;;4.18;;
58242;SDS011;50118;53.232;8.252;2023-01-08T06:39:09;6.75;;;4.30;;
58242;SDS011;50118;53.232;8.252;2023-01-08T06:41:34;6.90;;;4.75;;
58242;SDS011;50118;53.232;8.252;2023-01-08T06:43:59;7.63;;;4.60;;
58242;SDS011;50118;53.232;8.252;2023-01-08T06:46:25;7.07;;;4.40;;
58242;SDS011;50118;53.232;8.252;2023-01-08T06:48:51;5.82;;;4.47;;
58242;SDS011;50118;53.232;8.252;2023-01-08T06:51:16;10.75;;;4.85;;
58242;SDS011;50118;53.232;8.252;2023-01-08T06:53:41;7.05;;;4.80;;
58242;SDS011;50118;53.232;8.252;2023-01-08T06:56:07;6.93;;;4.60;;
58242;SDS011;50118;53.232;8.252;2023-01-08T06:58:35;8.25;;;4.70;;
58242;SDS011;50118;53.232;8.252;2023-01-08T07:01:01;7.63;;;5.03;;
58242;SDS011;50118;53.232;8.252;2023-01-08T07:03:27;8.98;;;5.32;;
58242;SDS011;50118;53.232;8.252;2023-01-08T07:05:52;6.45;;;5.03;;
58242;SDS011;50118;53.232;8.252;2023-01-08T07:08:19;8.27;;;5.35;;
58242;SDS011;50118;53.232;8.252;2023-01-08T07:10:44;7.75;;;5.40;;
58242;SDS011;50118;53.232;8.252;2023-01-08T07:13:10;9.27;;;4.93;;
58242;SDS011;50118;53.232;8.252;2023-01-08T07:15:37;7.57;;;5.10;;
58242;SDS011;50118;53.232;8.252;2023-01-08T07:18:06;8.90;;;5.30;;
58242;SDS011;50118;53.232;8.252;2023-01-08T07:20:34;7.45;;;5.20;;
58242;SDS011;50118;53.232;8.252;2023-01-08T07:23:03;10.27;;;4.93;;
58242;SDS011;50118;53.232;8.252;2023-01-08T07:25:30;7.45;;;4.97;;
58242;SDS011;50118;53.232;8.252;2023-01-08T07:27:56;8.18;;;5.22;;
58242;SDS011;50118;53.232;8.252;2023-01-08T07:30:22;7.32;;;4.95;;
58242;SDS011;50118;53.232;8.252;2023-01-08T07:32:48;7.68;;;4.65;;
58242;SDS011;50118;53.232;8.252;2023-01-08T07:35:14;6.22;;;4.72;;
58242;SDS011;50118;53.232;8.252;2023-01-08T07:37:40;8.05;;;5.55;;
58242;SDS011;50118;53.232;8.252;2023-01-08T07:40:07;9.93;;;6.10;;
58242;SDS011;50118;53.232;8.252;2023-01-08T07:42:34;10.10;;;6.32;;
58242;SDS011;50118;53.232;8.252;2023-01-08T07:44:59;9.18;;;5.57;;
58242;SDS011;50118;53.232;8.252;2023-01-08T07:47:24;8.35;;;5.13;;
58242;SDS011;50118;53.232;8.252;2023-01-08T07:49:50;9.75;;;4.90;;
58242;SDS011;50118;53.232;8.252;2023-01-08T07:52:15;6.43;;;4.40;;
58242;SDS011;50118;53.232;8.252;2023-01-08T07:54:41;6.15;;;3.92;;
58242;SDS011;50118;53.232;8.252;2023-01-08T07:57:06;6.70;;;4.00;;
58242;SDS011;50118;53.232;8.252;2023-01-08T07:59:32;8.70;;;4.10;;
58242;SDS011;50118;53.232;8.252;2023-01-08T08:01:57;7.55;;;3.75;;
58242;SDS011;50118;53.232;8.252;2023-01-08T08:04:22;6.15;;;3.30;;
58242;SDS011;50118;53.232;8.252;2023-01-08T08:06:48;5.72;;;3.30;;
58242;SDS011;50118;53.232;8.252;2023-01-08T08:09:14;7.10;;;3.00;;
58242;SDS011;50118;53.232;8.252;2023-01-08T08:11:40;6.88;;;3.40;;
58242;SDS011;50118;53.232;8.252;2023-01-08T08:14:06;9.52;;;4.85;;
58242;SDS011;50118;53.232;8.252;2023-01-08T08:16:31;7.20;;;3.60;;
58242;SDS011;50118;53.232;8.252;2023-01-08T08:18:57;8.32;;;5.47;;
58242;SDS011;50118;53.232;8.252;2023-01-08T08:21:23;6.65;;;3.40;;
58242;SDS011;50118;53.232;8.252;2023-01-08T08:23:49;5.25;;;2.83;;
58242;SDS011;50118;53.232;8.252;2023-01-08T08:26:14;4.47;;;2.58;;
58242;SDS011;50118;53.232;8.252;2023-01-08T08:28:40;6.40;;;2.97;;
58242;SDS011;50118;53.232;8.252;2023-01-08T08:31:05;7.18;;;2.60;;
58242;SDS011;50118;53.232;8.252;2023-01-08T08:33:31;5.15;;;2.33;;
58242;SDS011;50118;53.232;8.252;2023-01-08T08:35:56;7.13;;;2.60;;
58242;SDS011;50118;53.232;8.252;2023-01-08T08:38:22;4.32;;;2.10;;
58242;SDS011;50118;53.232;8.252;2023-01-08T08:40:48;5.50;;;2.10;;
58242;SDS011;50118;53.232;8.252;2023-01-08T08:43:14;5.05;;;2.30;;
58242;SDS011;50118;53.232;8.252;2023-01-08T08:45:39;3.58;;;1.98;;
58242;SDS011;50118;53.232;8.252;2023-01-08T08:48:05;6.22;;;2.20;;
58242;SDS011;50118;53.232;8.252;2023-01-08T08:50:31;5.78;;;2.40;;
58242;SDS011;50118;53.232;8.252;2023-01-08T08:52:57;6.30;;;2.60;;
58242;SDS011;50118;53.232;8.252;2023-01-08T08:55:24;10.13;;;3.78;;
58242;SDS011;50118;53.232;8.252;2023-01-08T08:57:49;6.63;;;3.08;;
58242;SDS011;50118;53.232;8.252;2023-01-08T09:00:15;5.72;;;1.83;;
58242;SDS011;50118;53.232;8.252;2023-01-08T09:02:41;4.40;;;1.85;;
58242;SDS011;50118;53.232;8.252;2023-01-08T09:05:06;3.45;;;1.80;;
58242;SDS011;50118;53.232;8.252;2023-01-08T09:07:32;7.93;;;2.10;;
58242;SDS011;50118;53.232;8.252;2023-01-08T09:09:58;6.03;;;2.08;;
58242;SDS011;50118;53.232;8.252;2023-01-08T09:12:23;5.50;;;1.70;;
58242;SDS011;50118;53.232;8.252;2023-01-08T09:14:49;4.68;;;2.10;;
58242;SDS011;50118;53.232;8.252;2023-01-08T09:17:15;5.25;;;1.80;;
58242;SDS011;50118;53.232;8.252;2023-01-08T09:19:41;4.43;;;1.88;;
58242;SDS011;50118;53.232;8.252;2023-01-08T09:22:06;5.22;;;2.00;;
58242;SDS011;50118;53.232;8.252;2023-01-08T09:24:32;5.10;;;2.08;;
58242;SDS011;50118;53.232;8.252;2023-01-08T09:26:57;5.20;;;1.80;;
58242;SDS011;50118;53.232;8.252;2023-01-08T09:29:23;4.10;;;1.85;;
58242;SDS011;50118;53.232;8.252;2023-01-08T09:31:48;4.35;;;2.10;;
58242;SDS011;50118;53.232;8.252;2023-01-08T09:34:14;5.18;;;1.77;;
58242;SDS011;50118;53.232;8.252;2023-01-08T09:36:39;5.85;;;1.83;;
58242;SDS011;50118;53.232;8.252;2023-01-08T09:39:05;4.10;;;1.60;;
58242;SDS011;50118;53.232;8.252;2023-01-08T09:41:31;5.20;;;1.98;;
58242;SDS011;50118;53.232;8.252;2023-01-08T09:44:02;4.38;;;1.80;;
58242;SDS011;50118;53.232;8.252;2023-01-08T09:46:30;3.30;;;1.70;;
58242;SDS011;50118;53.232;8.252;2023-01-08T09:48:56;4.20;;;1.65;;
58242;SDS011;50118;53.232;8.252;2023-01-08T09:51:34;6.38;;;2.40;;
58242;SDS011;50118;53.232;8.252;2023-01-08T09:54:02;4.22;;;1.58;;
58242;SDS011;50118;53.232;8.252;2023-01-08T09:56:28;5.25;;;1.60;;
58242;SDS011;50118;53.232;8.252;2023-01-08T09:58:55;4.22;;;1.50;;
58242;SDS011;50118;53.232;8.252;2023-01-08T10:01:25;3.13;;;1.50;;
58242;SDS011;50118;53.232;8.252;2023-01-08T10:03:59;3.95;;;1.60;;
58242;SDS011;50118;53.232;8.252;2023-01-08T10:06:30;3.90;;;1.67;;
58242;SDS011;50118;53.232;8.252;2023-01-08T10:08:56;4.28;;;1.58;;
58242;SDS011;50118;53.232;8.252;2023-01-08T10:11:22;3.60;;;2.00;;
58242;SDS011;50118;53.232;8.252;2023-01-08T10:13:52;2.92;;;1.48;;
58242;SDS011;50118;53.232;8.252;2023-01-08T10:16:25;5.68;;;1.70;;
58242;SDS011;50118;53.232;8.252;2023-01-08T10:19:01;5.72;;;1.70;;
58242;SDS011;50118;53.232;8.252;2023-01-08T10:21:31;3.72;;;1.80;;
58242;SDS011;50118;53.232;8.252;2023-01-08T10:24:01;5.15;;;1.80;;
58242;SDS011;50118;53.232;8.252;2023-01-08T10:26:28;3.80;;;1.90;;
58242;SDS011;50118;53.232;8.252;2023-01-08T10:29:15;2.90;;;1.40;;
58242;SDS011;50118;53.232;8.252;2023-01-08T10:31:53;3.55;;;1.52;;
58242;SDS011;50118;53.232;8.252;2023-01-08T10:34:24;3.80;;;1.80;;
58242;SDS011;50118;53.232;8.252;2023-01-08T10:36:50;3.40;;;1.80;;
58242;SDS011;50118;53.232;8.252;2023-01-08T10:39:27;4.03;;;1.67;;
58242;SDS011;50118;53.232;8.252;2023-01-08T10:41:55;2.95;;;1.40;;
58242;SDS011;50118;53.232;8.252;2023-01-08T10:44:27;3.97;;;1.50;;
58242;SDS011;50118;53.232;8.252;2023-01-08T10:46:56;5.70;;;1.40;;
58242;SDS011;50118;53.232;8.252;2023-01-08T10:49:29;2.55;;;1.30;;
58242;SDS011;50118;53.232;8.252;2023-01-08T10:51:57;2.80;;;1.20;;
58242;SDS011;50118;53.232;8.252;2023-01-08T10:54:36;5.32;;;1.48;;
58242;SDS011;50118;53.232;8.252;2023-01-08T10:59:52;3.50;;;1.45;;
58242;SDS011;50118;53.232;8.252;2023-01-08T11:05:03;3.13;;;1.33;;
58242;SDS011;50118;53.232;8.252;2023-01-08T11:07:31;2.35;;;1.40;;
58242;SDS011;50118;53.232;8.252;2023-01-08T11:09:59;2.55;;;1.20;;
58242;SDS011;50118;53.232;8.252;2023-01-08T11:12:31;4.28;;;1.42;;
58242;SDS011;50118;53.232;8.252;2023-01-08T11:15:03;2.90;;;1.35;;
58242;SDS011;50118;53.232;8.252;2023-01-08T11:17:32;2.85;;;1.60;;
58242;SDS011;50118;53.232;8.252;2023-01-08T11:20:05;2.85;;;1.40;;
58242;SDS011;50118;53.232;8.252;2023-01-08T11:22:32;4.43;;;1.80;;
58242;SDS011;50118;53.232;8.252;2023-01-08T11:24:58;5.13;;;1.80;;
58242;SDS011;50118;53.232;8.252;2023-01-08T11:27:25;3.53;;;1.73;;
58242;SDS011;50118;53.232;8.252;2023-01-08T11:30:04;4.53;;;1.77;;
58242;SDS011;50118;53.232;8.252;2023-01-08T11:32:47;4.32;;;1.65;;
58242;SDS011;50118;53.232;8.252;2023-01-08T11:35:23;3.03;;;1.38;;
58242;SDS011;50118;53.232;8.252;2023-01-08T11:40:26;7.20;;;1.98;;
58242;SDS011;50118;53.232;8.252;2023-01-08T11:43:37;7.60;;;2.25;;
58242;SDS011;50118;53.232;8.252;2023-01-08T11:48:46;3.50;;;1.35;;
58242;SDS011;50118;53.232;8.252;2023-01-08T11:56:44;6.47;;;1.50;;
58242;SDS011;50118;53.232;8.252;2023-01-08T12:11:15;6.20;;;1.90;;
58242;SDS011;50118;53.232;8.252;2023-01-08T12:14:17;9.52;;;2.33;;
58242;SDS011;50118;53.232;8.252;2023-01-08T12:19:26;6.85;;;1.73;;
58242;SDS011;50118;53.232;8.252;2023-01-08T12:35:39;4.95;;;1.35;;
58242;SDS011;50118;53.232;8.252;2023-01-08T12:43:19;8.10;;;1.73;;
58242;SDS011;50118;53.232;8.252;2023-01-08T12:45:53;5.55;;;1.60;;
58242;SDS011;50118;53.232;8.252;2023-01-08T12:48:26;6.97;;;1.80;;
58242;SDS011;50118;53.232;8.252;2023-01-08T13:07:45;8.20;;;1.65;;
58242;SDS011;50118;53.232;8.252;2023-01-08T13:10:20;7.45;;;1.40;;
58242;SDS011;50118;53.232;8.252;2023-01-08T13:12:49;4.07;;;1.35;;
58242;SDS011;50118;53.232;8.252;2023-01-08T13:15:19;7.72;;;1.75;;
58242;SDS011;50118;53.232;8.252;2023-01-08T13:17:49;8.38;;;1.67;;
58242;SDS011;50118;53.232;8.252;2023-01-08T13:20:23;7.75;;;1.35;;
58242;SDS011;50118;53.232;8.252;2023-01-08T13:22:52;7.00;;;1.55;;
58242;SDS011;50118;53.232;8.252;2023-01-08T13:27:46;4.82;;;1.48;;
58242;SDS011;50118;53.232;8.252;2023-01-08T13:32:55;5.53;;;1.52;;
58242;SDS011;50118;53.232;8.252;2023-01-08T13:35:23;8.50;;;1.60;;
58242;SDS011;50118;53.232;8.252;2023-01-08T13:38:13;7.68;;;2.13;;
58242;SDS011;50118;53.232;8.252;2023-01-08T13:43:12;6.53;;;1.50;;
58242;SDS011;50118;53.232;8.252;2023-01-08T13:45:42;5.65;;;1.50;;
58242;SDS011;50118;53.232;8.252;2023-01-08T13:48:38;8.77;;;1.40;;
58242;SDS011;50118;53.232;8.252;2023-01-08T13:56:36;7.55;;;1.60;;
58242;SDS011;50118;53.232;8.252;2023-01-08T13:59:02;7.75;;;1.55;;
58242;SDS011;50118;53.232;8.252;2023-01-08T14:01:29;7.40;;;1.50;;
58242;SDS011;50118;53.232;8.252;2023-01-08T14:03:55;12.57;;;1.98;;
58242;SDS011;50118;53.232;8.252;2023-01-08T14:06:23;7.95;;;1.40;;
58242;SDS011;50118;53.232;8.252;2023-01-08T14:08:54;6.47;;;1.70;;
58242;SDS011;50118;53.232;8.252;2023-01-08T14:11:45;8.48;;;1.50;;
58242;SDS011;50118;53.232;8.252;2023-01-08T14:14:11;8.90;;;1.77;;
58242;SDS011;50118;53.232;8.252;2023-01-08T14:16:39;8.55;;;1.75;;
58242;SDS011;50118;53.232;8.252;2023-01-08T14:19:05;9.55;;;1.90;;
58242;SDS011;50118;53.232;8.252;2023-01-08T14:21:31;8.23;;;1.55;;
58242;SDS011;50118;53.232;8.252;2023-01-08T14:23:56;7.60;;;1.75;;
58242;SDS011;50118;53.232;8.252;2023-01-08T14:26:26;7.15;;;1.90;;
58242;SDS011;50118;53.232;8.252;2023-01-08T14:28:55;9.48;;;1.67;;
58242;SDS011;50118;53.232;8.252;2023-01-08T14:31:21;12.77;;;2.13;;
58242;SDS011;50118;53.232;8.252;2023-01-08T14:33:49;6.93;;;1.60;;
58242;SDS011;50118;53.232;8.252;2023-01-08T14:36:16;9.02;;;1.70;;
58242;SDS011;50118;53.232;8.252;2023-01-08T14:38:42;9.93;;;1.77;;
58242;SDS011;50118;53.232;8.252;2023-01-08T14:41:11;7.93;;;1.80;;
58242;SDS011;50118;53.232;8.252;2023-01-08T14:43:39;8.38;;;2.00;;
58242;SDS011;50118;53.232;8.252;2023-01-08T14:46:18;6.18;;;1.80;;
58242;SDS011;50118;53.232;8.252;2023-01-08T14:48:46;6.65;;;1.90;;
58242;SDS011;50118;53.232;8.252;2023-01-08T14:51:13;9.13;;;1.90;;
58242;SDS011;50118;53.232;8.252;2023-01-08T14:53:47;6.32;;;1.75;;
58242;SDS011;50118;53.232;8.252;2023-01-08T14:56:19;8.93;;;2.10;;
58242;SDS011;50118;53.232;8.252;2023-01-08T14:58:49;8.95;;;2.20;;
58242;SDS011;50118;53.232;8.252;2023-01-08T15:01:16;7.97;;;2.50;;
58242;SDS011;50118;53.232;8.252;2023-01-08T15:03:44;8.07;;;1.98;;
58242;SDS011;50118;53.232;8.252;2023-01-08T15:06:21;13.73;;;2.83;;
58242;SDS011;50118;53.232;8.252;2023-01-08T15:08:51;11.43;;;2.78;;
58242;SDS011;50118;53.232;8.252;2023-01-08T15:13:42;6.82;;;2.65;;
58242;SDS011;50118;53.232;8.252;2023-01-08T15:16:10;8.55;;;2.60;;
58242;SDS011;50118;53.232;8.252;2023-01-08T15:18:47;7.82;;;2.80;;
58242;SDS011;50118;53.232;8.252;2023-01-08T15:21:19;8.70;;;2.80;;
58242;SDS011;50118;53.232;8.252;2023-01-08T15:23:50;9.13;;;3.20;;
58242;SDS011;50118;53.232;8.252;2023-01-08T15:26:18;11.30;;;2.90;;
58242;SDS011;50118;53.232;8.252;2023-01-08T15:31:45;9.07;;;2.67;;
58242;SDS011;50118;53.232;8.252;2023-01-08T15:34:12;8.02;;;2.50;;
58242;SDS011;50118;53.232;8.252;2023-01-08T15:36:37;8.50;;;3.20;;
58242;SDS011;50118;53.232;8.252;2023-01-08T15:39:03;8.25;;;2.92;;
58242;SDS011;50118;53.232;8.252;2023-01-08T15:41:33;7.05;;;3.00;;
58242;SDS011;50118;53.232;8.252;2023-01-08T15:44:18;9.18;;;3.40;;
58242;SDS011;50118;53.232;8.252;2023-01-08T15:46:43;8.98;;;3.78;;
58242;SDS011;50118;53.232;8.252;2023-01-08T15:49:09;10.25;;;3.65;;
58242;SDS011;50118;53.232;8.252;2023-01-08T15:51:34;9.07;;;3.08;;
58242;SDS011;50118;53.232;8.252;2023-01-08T15:54:04;11.50;;;3.50;;
58242;SDS011;50118;53.232;8.252;2023-01-08T15:56:30;10.80;;;3.50;;
58242;SDS011;50118;53.232;8.252;2023-01-08T15:58:55;12.25;;;3.72;;
58242;SDS011;50118;53.232;8.252;2023-01-08T16:01:20;9.40;;;3.30;;
58242;SDS011;50118;53.232;8.252;2023-01-08T16:03:46;8.05;;;3.30;;
58242;SDS011;50118;53.232;8.252;2023-01-08T16:06:12;10.77;;;3.40;;
58242;SDS011;50118;53.232;8.252;2023-01-08T16:08:38;8.82;;;3.10;;
58242;SDS011;50118;53.232;8.252;2023-01-08T16:11:03;7.35;;;3.28;;
58242;SDS011;50118;53.232;8.252;2023-01-08T16:13:29;9.52;;;3.45;;
58242;SDS011;50118;53.232;8.252;2023-01-08T16:15:54;12.25;;;3.80;;
58242;SDS011;50118;53.232;8.252;2023-01-08T16:18:20;9.02;;;3.60;;
58242;SDS011;50118;53.232;8.252;2023-01-08T16:20:45;9.77;;;3.63;;
58242;SDS011;50118;53.232;8.252;2023-01-08T16:23:10;8.57;;;3.15;;
58242;SDS011;50118;53.232;8.252;2023-01-08T16:25:39;10.23;;;4.13;;
58242;SDS011;50118;53.232;8.252;2023-01-08T16:28:04;9.73;;;4.80;;
58242;SDS011;50118;53.232;8.252;2023-01-08T16:30:30;11.32;;;4.78;;
58242;SDS011;50118;53.232;8.252;2023-01-08T16:32:55;9.88;;;3.78;;
58242;SDS011;50118;53.232;8.252;2023-01-08T16:35:21;11.18;;;4.15;;
58242;SDS011;50118;53.232;8.252;2023-01-08T16:37:46;10.25;;;4.43;;